Terminal Aerodrome Forecast
Issued by NWS Des Moines, IA

Home | Current Version | Previous Version | Text Only | Print | Product List | Glossary On
Versions: 1 2 3 4 5 6 7 8 9 10 11 12 13 14 15 16 17 18 19 20
000
FTUS43 KDMX 211138
TAFDSM
TAF
KDSM 211138Z 2112/2212 09005KT P6SM VCTS BKN070CB
     FM211400 11005KT P6SM BKN060
     FM211600 16009KT P6SM SCT150
     FM212000 17014KT P6SM SCT200
     FM220100 17009KT P6SM FEW200=

USA.gov is the U.S. government's official web portal to all federal, state and local government web resources and services.